createdAt,value
2022-10-14T00:01:13.187Z,100.00
2022-10-14T00:03:40.637Z,100.00
2022-10-14T00:06:10.485Z,100.00
2022-10-14T00:08:37.869Z,100.00
2022-10-14T00:11:10.757Z,100.00
2022-10-14T00:13:38.363Z,100.00
2022-10-14T00:16:06.364Z,100.00
2022-10-14T00:18:33.672Z,100.00
2022-10-14T00:21:02.050Z,100.00
2022-10-14T00:23:30.765Z,100.00
2022-10-14T00:25:58.003Z,100.00
2022-10-14T00:28:30.488Z,100.00
2022-10-14T00:30:59.819Z,100.00
2022-10-14T00:33:28.040Z,100.00
2022-10-14T00:35:58.982Z,100.00
2022-10-14T00:38:31.887Z,100.00
2022-10-14T00:40:59.204Z,100.00
2022-10-14T00:43:27.886Z,100.00
2022-10-14T00:45:55.159Z,100.00
2022-10-14T00:48:24.984Z,100.00
2022-10-14T00:50:56.609Z,100.00
2022-10-14T00:53:23.888Z,100.00
2022-10-14T00:55:53.172Z,100.00
2022-10-14T00:58:23.862Z,100.00
2022-10-14T01:00:51.306Z,100.00
2022-10-14T01:03:21.270Z,100.00
2022-10-14T01:05:55.497Z,100.00
2022-10-14T01:08:31.640Z,100.00
2022-10-14T01:11:14.997Z,100.00
2022-10-14T01:13:50.895Z,100.00
2022-10-14T01:16:21.792Z,100.00
2022-10-14T01:19:33.393Z,100.00
2022-10-14T01:22:32.573Z,100.00
2022-10-14T01:25:20.471Z,100.00
2022-10-14T01:28:16.645Z,100.00
2022-10-14T01:30:47.070Z,100.00
2022-10-14T01:33:24.793Z,100.00
2022-10-14T01:36:12.309Z,100.00
2022-10-14T01:38:45.412Z,100.00
2022-10-14T01:41:29.109Z,100.00
2022-10-14T01:44:00.548Z,100.00
2022-10-14T01:46:29.680Z,100.00
2022-10-14T01:49:01.878Z,100.00
2022-10-14T01:51:33.322Z,100.00
2022-10-14T01:54:04.717Z,100.00
2022-10-14T01:56:35.011Z,100.00
2022-10-14T01:59:06.936Z,100.00
2022-10-14T02:01:35.004Z,100.00
2022-10-14T02:04:02.483Z,99.57
2022-10-14T02:06:32.601Z,99.13
2022-10-14T02:09:12.830Z,98.66
2022-10-14T02:11:57.332Z,98.39
2022-10-14T02:14:27.593Z,98.40
2022-10-14T02:16:55.928Z,98.98
2022-10-14T02:19:28.794Z,99.14
2022-10-14T02:22:02.072Z,98.89
2022-10-14T02:24:38.377Z,98.43
2022-10-14T02:27:09.597Z,98.70
2022-10-14T02:29:39.081Z,98.43
2022-10-14T02:32:07.331Z,98.29
2022-10-14T02:34:35.448Z,97.75
2022-10-14T02:37:03.498Z,97.03
2022-10-14T02:39:36.756Z,96.53
2022-10-14T02:42:05.834Z,96.38
2022-10-14T02:44:34.727Z,96.36
2022-10-14T02:47:02.131Z,95.78
2022-10-14T02:49:30.551Z,96.05
2022-10-14T02:51:57.812Z,95.95
2022-10-14T02:54:25.067Z,97.65
2022-10-14T02:56:52.320Z,98.33
2022-10-14T02:59:19.533Z,97.72
2022-10-14T03:01:47.101Z,98.36
2022-10-14T03:04:16.305Z,98.32
2022-10-14T03:06:43.575Z,97.75
2022-10-14T03:09:10.797Z,98.40
2022-10-14T03:11:40.974Z,99.52
2022-10-14T03:14:13.436Z,98.50
2022-10-14T03:16:42.342Z,98.73
2022-10-14T03:19:12.347Z,98.80
2022-10-14T03:21:44.423Z,99.86
2022-10-14T03:24:18.343Z,100.00
2022-10-14T03:26:47.691Z,100.00
2022-10-14T03:29:20.068Z,100.00
2022-10-14T03:31:55.362Z,100.00
2022-10-14T03:34:41.125Z,99.53
2022-10-14T03:37:15.090Z,98.96
2022-10-14T03:39:49.051Z,97.99
2022-10-14T03:42:17.483Z,97.56
2022-10-14T03:44:47.868Z,97.81
2022-10-14T03:47:19.072Z,97.47
2022-10-14T03:49:46.576Z,97.89
2022-10-14T03:52:34.040Z,97.42
2022-10-14T03:55:18.029Z,96.23
2022-10-14T03:57:47.566Z,95.92
2022-10-14T04:00:16.656Z,96.24
2022-10-14T04:02:50.001Z,95.76
2022-10-14T04:05:33.671Z,95.22
2022-10-14T04:08:04.158Z,95.21
2022-10-14T04:10:31.796Z,97.37
2022-10-14T04:13:01.818Z,97.83
2022-10-14T04:15:36.553Z,98.72
2022-10-14T04:18:24.005Z,98.44
2022-10-14T04:20:53.768Z,97.49
2022-10-14T04:23:23.322Z,97.89
2022-10-14T04:25:54.948Z,97.98
2022-10-14T04:28:23.643Z,98.33
2022-10-14T04:31:00.545Z,96.93
2022-10-14T04:33:35.061Z,96.20
2022-10-14T04:36:10.531Z,95.11
2022-10-14T04:38:40.771Z,94.92
2022-10-14T04:41:10.377Z,94.09
2022-10-14T04:43:41.821Z,93.56
2022-10-14T04:46:20.691Z,93.16
2022-10-14T04:48:49.172Z,93.47
2022-10-14T04:51:17.789Z,93.65
2022-10-14T04:54:02.986Z,95.44
2022-10-14T04:56:56.949Z,95.49
2022-10-14T04:59:24.223Z,95.32
2022-10-14T05:02:01.106Z,94.89
2022-10-14T05:04:37.701Z,94.22
2022-10-14T05:07:04.996Z,94.22
2022-10-14T05:09:33.396Z,93.96
2022-10-14T05:12:01.220Z,93.93
2022-10-14T05:14:38.619Z,92.99
2022-10-14T05:17:22.687Z,94.33
2022-10-14T05:19:49.935Z,94.69
2022-10-14T05:22:19.379Z,95.29
2022-10-14T05:24:46.953Z,94.43
2022-10-14T05:27:14.874Z,94.09
2022-10-14T05:29:43.215Z,94.28
2022-10-14T05:32:10.711Z,93.05
2022-10-14T05:34:45.066Z,93.05
2022-10-14T05:37:25.103Z,92.93
2022-10-14T05:39:56.213Z,92.58
2022-10-14T05:42:26.536Z,92.31
2022-10-14T05:44:56.800Z,92.58
2022-10-14T05:47:25.118Z,94.16
2022-10-14T05:49:57.695Z,95.02
2022-10-14T05:52:25.288Z,94.34
2022-10-14T05:54:53.835Z,94.10
2022-10-14T05:57:24.885Z,93.83
2022-10-14T05:59:52.079Z,94.77
2022-10-14T06:02:19.664Z,94.08
2022-10-14T06:04:47.619Z,95.19
2022-10-14T06:07:15.096Z,95.23
2022-10-14T06:09:42.559Z,94.97
2022-10-14T06:12:10.264Z,94.89
2022-10-14T06:14:38.834Z,94.70
2022-10-14T06:17:06.583Z,94.12
2022-10-14T06:19:34.008Z,93.41
2022-10-14T06:22:01.238Z,93.67
2022-10-14T06:24:28.738Z,94.07
2022-10-14T06:26:56.030Z,93.48
2022-10-14T06:29:26.582Z,93.33
2022-10-14T06:31:53.804Z,93.50
2022-10-14T06:34:23.750Z,94.52
2022-10-14T06:36:50.990Z,93.55
2022-10-14T06:39:18.167Z,94.40
2022-10-14T06:41:45.435Z,96.98
2022-10-14T06:44:20.442Z,97.71
2022-10-14T06:46:47.736Z,95.92
2022-10-14T06:49:14.963Z,98.00
2022-10-14T06:51:42.278Z,97.28
2022-10-14T06:54:09.503Z,97.12
2022-10-14T06:56:36.738Z,95.58
2022-10-14T06:59:05.830Z,93.59
2022-10-14T07:01:33.117Z,90.06
2022-10-14T07:04:00.383Z,88.84
2022-10-14T07:06:27.650Z,89.55
2022-10-14T07:08:54.881Z,90.84
2022-10-14T07:11:22.279Z,91.10
2022-10-14T07:13:49.650Z,93.09
2022-10-14T07:16:16.863Z,95.00
2022-10-14T07:18:44.161Z,93.81
2022-10-14T07:21:11.730Z,93.59
2022-10-14T07:23:39.031Z,94.37
2022-10-14T07:26:06.317Z,94.25
2022-10-14T07:28:34.191Z,95.05
2022-10-14T07:31:04.037Z,95.08
2022-10-14T07:33:31.380Z,95.61
2022-10-14T07:36:03.317Z,94.56
2022-10-14T07:38:31.387Z,93.24
2022-10-14T07:41:07.771Z,93.50
2022-10-14T07:43:35.895Z,91.90
2022-10-14T07:46:05.219Z,91.66
2022-10-14T07:48:45.246Z,92.19
2022-10-14T07:51:21.559Z,91.37
2022-10-14T07:53:50.179Z,92.24
2022-10-14T07:56:17.464Z,92.09
2022-10-14T07:58:44.757Z,91.48
2022-10-14T08:01:12.837Z,91.26
2022-10-14T08:03:40.192Z,91.25
2022-10-14T08:06:07.583Z,89.94
2022-10-14T08:08:35.738Z,89.12
2022-10-14T08:11:24.717Z,88.89
2022-10-14T08:13:52.200Z,88.14
2022-10-14T08:16:21.621Z,87.47
2022-10-14T08:18:49.765Z,88.76
2022-10-14T08:21:18.169Z,87.95
2022-10-14T08:23:45.591Z,86.71
2022-10-14T08:26:18.614Z,86.69
2022-10-14T08:28:46.162Z,86.55
2022-10-14T08:31:13.631Z,86.96
2022-10-14T08:33:40.813Z,86.47
2022-10-14T08:36:08.661Z,86.02
2022-10-14T08:38:35.926Z,86.33
2022-10-14T08:41:12.295Z,85.64
2022-10-14T08:43:43.303Z,86.19
2022-10-14T08:46:19.249Z,84.97
2022-10-14T08:48:48.112Z,85.09
2022-10-14T08:51:17.576Z,84.85
2022-10-14T08:53:56.179Z,85.56
2022-10-14T08:56:24.601Z,86.59
2022-10-14T08:58:53.991Z,86.28
2022-10-14T09:01:36.265Z,86.37
2022-10-14T09:04:10.718Z,87.05
2022-10-14T09:06:40.282Z,87.25
2022-10-14T09:09:16.756Z,87.73
2022-10-14T09:11:46.289Z,87.49
2022-10-14T09:14:21.607Z,87.02
2022-10-14T09:16:54.181Z,86.12
2022-10-14T09:19:46.882Z,86.54
2022-10-14T09:22:15.406Z,87.92
2022-10-14T09:24:46.154Z,88.98
2022-10-14T09:27:17.645Z,88.08
2022-10-14T09:29:57.244Z,87.13
2022-10-14T09:32:30.626Z,86.41
2022-10-14T09:34:58.718Z,86.71
2022-10-14T09:37:26.091Z,86.27
2022-10-14T09:39:56.560Z,86.57
2022-10-14T09:42:26.047Z,87.21
2022-10-14T09:45:14.265Z,86.77
2022-10-14T09:47:59.193Z,85.54
2022-10-14T09:50:39.800Z,85.80
2022-10-14T09:53:13.888Z,85.91
2022-10-14T09:55:48.235Z,86.24
2022-10-14T09:58:41.444Z,87.34
2022-10-14T10:01:14.504Z,87.12
2022-10-14T10:03:42.114Z,86.90
2022-10-14T10:06:11.965Z,86.86
2022-10-14T10:09:01.353Z,86.35
2022-10-14T10:11:40.080Z,86.25
2022-10-14T10:14:27.682Z,86.08
2022-10-14T10:17:07.262Z,85.98
2022-10-14T10:19:37.565Z,85.40
2022-10-14T10:22:24.612Z,84.87
2022-10-14T10:25:01.078Z,86.83
2022-10-14T10:27:36.605Z,87.23
2022-10-14T10:30:22.076Z,87.52
2022-10-14T10:32:52.321Z,88.14
2022-10-14T10:35:22.173Z,87.00
2022-10-14T10:38:03.332Z,87.48
2022-10-14T10:40:52.782Z,89.52
2022-10-14T10:43:19.983Z,87.58
2022-10-14T10:46:01.248Z,86.13
2022-10-14T10:48:48.015Z,85.50
2022-10-14T10:51:34.467Z,82.58
2022-10-14T10:54:39.883Z,82.45
2022-10-14T10:57:18.182Z,82.85
2022-10-14T10:59:56.334Z,84.79
2022-10-14T11:02:58.242Z,83.68
2022-10-14T11:05:47.443Z,83.97
2022-10-14T11:08:45.704Z,83.86
2022-10-14T11:12:04.758Z,84.10
2022-10-14T11:14:47.410Z,83.81
2022-10-14T11:17:14.623Z,84.87
2022-10-14T11:20:01.083Z,84.40
2022-10-14T11:22:48.015Z,85.15
2022-10-14T11:25:40.872Z,85.98
2022-10-14T11:28:12.662Z,85.34
2022-10-14T11:30:39.842Z,84.50
2022-10-14T11:33:45.574Z,83.68
2022-10-14T11:36:25.294Z,84.38
2022-10-14T11:39:16.464Z,83.33
2022-10-14T11:41:55.968Z,83.19
2022-10-14T11:44:32.393Z,83.75
2022-10-14T11:47:04.507Z,83.25
2022-10-14T11:49:36.675Z,83.91
2022-10-14T11:52:07.749Z,84.90
2022-10-14T11:54:43.662Z,85.19
2022-10-14T11:57:20.347Z,86.14
2022-10-14T12:00:01.173Z,86.16
2022-10-14T12:02:41.067Z,87.14
2022-10-14T12:05:44.514Z,87.32
2022-10-14T12:08:22.229Z,88.87
2022-10-14T12:10:58.297Z,90.14
2022-10-14T12:13:32.563Z,89.40
2022-10-14T12:16:05.456Z,89.99
2022-10-14T12:18:33.085Z,91.82
2022-10-14T12:21:08.649Z,92.02
2022-10-14T12:23:47.294Z,93.83
2022-10-14T12:26:20.495Z,93.40
2022-10-14T12:28:47.931Z,94.17
2022-10-14T12:31:38.298Z,93.91
2022-10-14T12:34:11.613Z,95.10
2022-10-14T12:36:39.817Z,95.78
2022-10-14T12:39:19.030Z,95.36
2022-10-14T12:42:10.473Z,95.39
2022-10-14T12:44:51.860Z,97.31
2022-10-14T12:47:21.258Z,96.05
2022-10-14T12:49:56.470Z,96.63
2022-10-14T12:52:27.225Z,96.19
2022-10-14T12:54:55.209Z,96.95
2022-10-14T12:57:28.685Z,97.18
2022-10-14T12:59:59.352Z,97.02
2022-10-14T13:02:33.088Z,97.28
2022-10-14T13:05:06.820Z,97.55
2022-10-14T13:07:42.896Z,97.33
2022-10-14T13:10:50.414Z,97.51
2022-10-14T13:13:44.837Z,97.46
2022-10-14T13:16:21.154Z,98.46
2022-10-14T13:18:53.222Z,98.85
2022-10-14T13:21:34.815Z,98.05
2022-10-14T13:24:06.037Z,98.26
2022-10-14T13:26:54.639Z,97.69
2022-10-14T13:29:40.637Z,97.26
2022-10-14T13:32:25.858Z,96.84
2022-10-14T13:35:01.244Z,97.05
2022-10-14T13:38:05.474Z,98.38
2022-10-14T13:40:43.751Z,99.33
2022-10-14T13:43:20.036Z,99.12
2022-10-14T13:45:53.381Z,98.75
2022-10-14T13:48:30.968Z,97.56
2022-10-14T13:51:24.687Z,96.35
2022-10-14T13:54:17.188Z,96.25
2022-10-14T13:56:44.939Z,96.08
2022-10-14T13:59:43.130Z,96.77
2022-10-14T14:02:16.150Z,97.39
2022-10-14T14:04:51.557Z,97.52
2022-10-14T14:07:59.230Z,97.56
2022-10-14T14:10:18.857Z,99.38
2022-10-14T14:12:46.718Z,98.51
2022-10-14T14:15:21.631Z,99.10
2022-10-14T14:17:48.967Z,99.88
2022-10-14T14:20:24.441Z,99.40
2022-10-14T14:22:54.097Z,99.39
2022-10-14T14:25:35.716Z,99.81
2022-10-14T14:28:15.409Z,100.00
2022-10-14T14:30:54.293Z,100.00
2022-10-14T14:33:33.964Z,100.00
2022-10-14T14:36:03.912Z,100.00
2022-10-14T14:38:33.420Z,100.00
2022-10-14T14:41:06.057Z,100.00
2022-10-14T14:43:37.406Z,100.00
2022-10-14T14:46:07.178Z,100.00
2022-10-14T14:48:34.497Z,100.00
2022-10-14T14:51:01.855Z,100.00
2022-10-14T14:53:32.189Z,100.00
2022-10-14T14:56:10.423Z,100.00
2022-10-14T14:58:49.234Z,100.00
2022-10-14T15:01:28.978Z,100.00
2022-10-14T15:04:12.652Z,100.00
2022-10-14T15:07:04.097Z,100.00
2022-10-14T15:10:00.856Z,100.00
2022-10-14T15:12:30.991Z,100.00
2022-10-14T15:14:59.823Z,100.00
2022-10-14T15:17:30.130Z,100.00
2022-10-14T15:20:01.291Z,99.96
2022-10-14T15:22:36.568Z,100.00
2022-10-14T15:25:10.365Z,100.00
2022-10-14T15:27:37.533Z,100.00
2022-10-14T15:30:31.781Z,99.28
2022-10-14T15:33:06.118Z,98.71
2022-10-14T15:35:34.197Z,97.70
2022-10-14T15:38:01.498Z,97.79
2022-10-14T15:40:32.364Z,99.75
2022-10-14T15:42:59.708Z,99.13
2022-10-14T15:45:27.110Z,98.14
2022-10-14T15:48:00.707Z,97.73
2022-10-14T15:50:28.170Z,97.33
2022-10-14T15:52:56.884Z,97.68
2022-10-14T15:55:27.138Z,97.40
2022-10-14T15:57:54.512Z,97.43
2022-10-14T16:00:23.636Z,97.31
2022-10-14T16:02:54.529Z,97.46
2022-10-14T16:05:21.903Z,97.63
2022-10-14T16:07:49.491Z,97.90
2022-10-14T16:10:21.563Z,98.78
2022-10-14T16:12:49.584Z,99.40
2022-10-14T16:15:22.599Z,99.05
2022-10-14T16:17:52.814Z,98.83
2022-10-14T16:20:21.478Z,98.52
2022-10-14T16:22:48.965Z,98.45
2022-10-14T16:25:23.971Z,98.18
2022-10-14T16:27:51.319Z,98.43
2022-10-14T16:30:18.793Z,98.72
2022-10-14T16:32:45.980Z,98.53
2022-10-14T16:35:13.239Z,98.90
2022-10-14T16:37:41.092Z,98.13
2022-10-14T16:40:10.919Z,98.51
2022-10-14T16:42:38.373Z,98.15
2022-10-14T16:45:06.278Z,100.00
2022-10-14T16:47:33.689Z,100.00
2022-10-14T16:50:00.981Z,100.00
2022-10-14T16:52:28.213Z,100.00
2022-10-14T16:54:55.505Z,100.00
2022-10-14T16:57:22.790Z,100.00
2022-10-14T16:59:50.059Z,100.00
2022-10-14T17:02:18.036Z,100.00
2022-10-14T17:04:46.541Z,100.00
2022-10-14T17:07:16.592Z,100.00
2022-10-14T17:09:43.857Z,100.00
2022-10-14T17:12:13.779Z,100.00
2022-10-14T17:14:41.655Z,100.00
2022-10-14T17:17:10.373Z,100.00
2022-10-14T17:19:38.429Z,100.00
2022-10-14T17:22:05.859Z,98.92
2022-10-14T17:24:33.084Z,99.88
2022-10-14T17:27:04.567Z,100.00
2022-10-14T17:29:32.107Z,100.00
2022-10-14T17:31:59.299Z,100.00
2022-10-14T17:34:26.540Z,100.00
2022-10-14T17:36:54.307Z,100.00
2022-10-14T17:39:27.587Z,99.58
2022-10-14T17:41:56.714Z,99.14
2022-10-14T17:44:24.565Z,100.00
2022-10-14T17:46:52.030Z,100.00
2022-10-14T17:49:19.890Z,100.00
2022-10-14T17:51:47.377Z,99.38
2022-10-14T17:54:14.684Z,100.00
2022-10-14T17:56:43.091Z,100.00
2022-10-14T17:59:11.957Z,100.00
2022-10-14T18:04:26.494Z,100.00
2022-10-14T18:06:54.230Z,100.00
2022-10-14T18:09:21.725Z,100.00
2022-10-14T18:14:39.039Z,100.00
2022-10-14T18:17:06.469Z,100.00
2022-10-14T18:19:36.360Z,100.00
2022-10-14T18:22:04.132Z,100.00
2022-10-14T18:24:32.336Z,100.00
2022-10-14T18:26:59.529Z,99.51
2022-10-14T18:29:26.822Z,98.44
2022-10-14T18:31:54.016Z,99.53
2022-10-14T18:34:22.454Z,99.70
2022-10-14T18:36:49.874Z,99.75
2022-10-14T18:39:17.065Z,99.81
2022-10-14T18:41:44.398Z,100.00
2022-10-14T18:44:12.083Z,99.16
2022-10-14T18:46:40.418Z,99.18
2022-10-14T18:49:10.278Z,100.00
2022-10-14T18:51:38.831Z,100.00
2022-10-14T18:54:20.550Z,100.00
2022-10-14T18:56:48.023Z,99.98
2022-10-14T18:59:23.368Z,100.00
2022-10-14T19:01:55.221Z,100.00
2022-10-14T19:04:26.678Z,100.00
2022-10-14T19:06:54.016Z,100.00
2022-10-14T19:09:24.493Z,100.00
2022-10-14T19:11:52.707Z,100.00
2022-10-14T19:14:22.337Z,100.00
2022-10-14T19:16:49.854Z,100.00
2022-10-14T19:19:19.550Z,100.00
2022-10-14T19:21:51.034Z,100.00
2022-10-14T19:24:18.435Z,100.00
2022-10-14T19:26:46.875Z,100.00
2022-10-14T19:29:15.716Z,100.00
2022-10-14T19:31:43.898Z,100.00
2022-10-14T19:34:14.520Z,100.00
2022-10-14T19:36:43.507Z,100.00
2022-10-14T19:39:13.418Z,100.00
2022-10-14T19:41:46.254Z,100.00
2022-10-14T19:44:15.484Z,100.00
2022-10-14T19:46:44.302Z,100.00
2022-10-14T19:49:13.410Z,100.00
2022-10-14T19:51:40.867Z,100.00
2022-10-14T19:54:09.942Z,100.00
2022-10-14T19:56:37.197Z,100.00
2022-10-14T19:59:04.431Z,100.00
2022-10-14T20:01:32.343Z,100.00
2022-10-14T20:04:00.803Z,100.00
2022-10-14T20:06:31.709Z,100.00
2022-10-14T20:08:58.999Z,100.00
2022-10-14T20:11:26.448Z,100.00
2022-10-14T20:13:53.898Z,100.00
2022-10-14T20:16:21.072Z,100.00
2022-10-14T20:18:48.335Z,100.00
2022-10-14T20:21:16.184Z,100.00
2022-10-14T20:23:43.682Z,100.00
2022-10-14T20:26:18.042Z,100.00
2022-10-14T20:28:46.108Z,100.00
2022-10-14T20:31:16.168Z,100.00
2022-10-14T20:33:43.665Z,100.00
2022-10-14T20:36:18.246Z,100.00
2022-10-14T20:38:49.499Z,100.00
2022-10-14T20:41:24.314Z,100.00
2022-10-14T20:43:52.886Z,100.00
2022-10-14T20:46:21.770Z,100.00
2022-10-14T20:48:53.460Z,100.00
2022-10-14T20:51:22.598Z,100.00
2022-10-14T20:53:50.148Z,100.00
2022-10-14T20:56:17.461Z,100.00
2022-10-14T20:58:44.974Z,99.93
2022-10-14T21:01:17.109Z,100.00
2022-10-14T21:03:46.232Z,100.00
2022-10-14T21:06:26.903Z,100.00
2022-10-14T21:08:54.669Z,100.00
2022-10-14T21:11:23.425Z,100.00
2022-10-14T21:13:52.903Z,100.00
2022-10-14T21:16:25.793Z,100.00
2022-10-14T21:18:58.053Z,100.00
2022-10-14T21:21:27.241Z,100.00
2022-10-14T21:23:55.555Z,100.00
2022-10-14T21:26:23.096Z,100.00
2022-10-14T21:28:50.451Z,100.00
2022-10-14T21:31:19.312Z,100.00
2022-10-14T21:33:47.770Z,100.00
2022-10-14T21:36:16.700Z,100.00
2022-10-14T21:38:44.393Z,100.00
2022-10-14T21:41:12.107Z,100.00
2022-10-14T21:43:39.696Z,100.00
2022-10-14T21:46:14.322Z,100.00
2022-10-14T21:48:42.488Z,100.00
2022-10-14T21:51:12.089Z,100.00
2022-10-14T21:53:40.479Z,100.00
2022-10-14T21:56:08.300Z,100.00
2022-10-14T21:58:36.129Z,100.00
2022-10-14T22:01:24.340Z,99.53
2022-10-14T22:03:59.539Z,98.85
2022-10-14T22:06:27.237Z,98.12
2022-10-14T22:08:56.364Z,96.80
2022-10-14T22:11:29.152Z,96.71
2022-10-14T22:13:58.275Z,97.58
2022-10-14T22:16:28.907Z,97.92
2022-10-14T22:18:58.396Z,97.40
2022-10-14T22:21:27.336Z,98.82
2022-10-14T22:23:54.621Z,99.20
2022-10-14T22:26:23.853Z,99.52
2022-10-14T22:28:58.957Z,99.37
2022-10-14T22:31:27.340Z,96.82
2022-10-14T22:33:54.580Z,97.93
2022-10-14T22:36:24.353Z,98.26
2022-10-14T22:38:53.120Z,97.74
2022-10-14T22:41:21.156Z,96.81
2022-10-14T22:43:50.415Z,97.23
2022-10-14T22:46:22.291Z,96.92
2022-10-14T22:48:50.302Z,98.12
2022-10-14T22:51:20.074Z,97.79
2022-10-14T22:53:47.412Z,95.92
2022-10-14T22:56:22.467Z,95.41
2022-10-14T22:58:54.071Z,97.65
2022-10-14T23:01:22.247Z,96.80
2022-10-14T23:03:50.533Z,95.34
2022-10-14T23:06:17.774Z,94.66
2022-10-14T23:08:45.061Z,94.50
2022-10-14T23:11:18.459Z,96.39
2022-10-14T23:13:46.110Z,96.20
2022-10-14T23:16:31.653Z,95.09
2022-10-14T23:18:59.375Z,95.37
2022-10-14T23:21:29.198Z,95.97
2022-10-14T23:23:58.072Z,95.32
2022-10-14T23:26:27.141Z,95.39
2022-10-14T23:28:57.388Z,95.73
2022-10-14T23:31:25.547Z,95.12
2022-10-14T23:33:53.177Z,95.48
2022-10-14T23:36:21.968Z,94.75
2022-10-14T23:38:49.898Z,95.30
2022-10-14T23:41:17.155Z,96.40
2022-10-14T23:43:45.481Z,96.03
2022-10-14T23:46:12.960Z,95.70
2022-10-14T23:48:40.670Z,95.41
2022-10-14T23:51:08.634Z,95.67
2022-10-14T23:53:35.926Z,95.51
2022-10-14T23:56:04.367Z,95.96
2022-10-14T23:58:32.381Z,96.04
